| time (UTC) | temp C | wind direction | speed KPH | gust KPH | rain 1hr cm | rain 24hr cm | rain mn cm | humidity % | barometer mb |
| 20260905195135 | 21 | 281 | 1.6 | 3.2 | 0.00 | 0.00 | 0.00 | 53 | 1023.8 |
| 20260905193943 | 21 | 290 | 1.6 | 3.2 | 0.00 | 0.00 | 0.00 | 53 | 1023.6 |
| 20260905192750 | 21 | 304 | 1.6 | 1.6 | 0.00 | 0.00 | 0.00 | 52 | 1023.6 |
| 20260905191538 | 21 | 270 | 1.6 | 3.2 | 0.00 | 0.00 | 0.00 | 51 | 1023.6 |
| 20260905190334 | 22 | 296 | 1.6 | 3.2 | 0.00 | 0.00 | 0.00 | 51 | 1023.5 |
| 20260905185143 | 22 | 300 | 0.0 | 1.6 | 0.00 | 0.00 | 0.00 | 50 | 1023.2 |
| 20260905183959 | 22 | 302 | 1.6 | 3.2 | 0.00 | 0.00 | 0.00 | 50 | 1023.1 |
| 20260905182747 | 22 | 303 | 1.6 | 3.2 | 0.00 | 0.00 | 0.00 | 49 | 1022.9 |
| 20260905181525 | 22 | 308 | 1.6 | 3.2 | 0.00 | 0.00 | 0.00 | 49 | 1022.7 |
| 20260905180342 | 23 | 307 | 1.6 | 3.2 | 0.00 | 0.00 | 0.00 | 48 | 1022.7 |
| 20260905175200 | 23 | 302 | 3.2 | 4.8 | 0.00 | 0.00 | 0.00 | 47 | 1022.5 |
| 20260905174008 | 23 | 297 | 3.2 | 8.0 | 0.00 | 0.00 | 0.00 | 46 | 1022.2 |
| 20260905172815 | -17 | 0.0 | 0.0 | 0.00 | 0.00 | 0.00 | |||
| 20260905172422 | -17 | 0.0 | 0.0 | 0.00 | 0.00 | 0.00 | |||
| 20260905171234 | 25 | 290 | 4.8 | 6.4 | 0.00 | 0.00 | 0.00 | 44 | 1022.2 |
| 20260905170041 | 25 | 306 | 8.0 | 12.9 | 0.00 | 0.00 | 0.00 | 43 | 1022.1 |
| 20260905164829 | 25 | 321 | 4.8 | 6.4 | 0.00 | 0.00 | 0.00 | 43 | 1022.0 |
| 20260905163656 | 25 | 302 | 8.0 | 14.5 | 0.00 | 0.00 | 0.00 | 42 | 1021.9 |
| 20260905162443 | 25 | 290 | 9.7 | 14.5 | 0.00 | 0.00 | 0.00 | 41 | 1021.8 |
| 20260905161250 | 25 | 311 | 8.0 | 12.9 | 0.00 | 0.00 | 0.00 | 41 | 1021.7 |
| 20260905160047 | 25 | 310 | 6.4 | 11.3 | 0.00 | 0.00 | 0.00 | 41 | 1021.8 |
| 20260905154834 | 25 | 300 | 9.7 | 12.9 | 0.00 | 0.00 | 0.00 | 41 | 1021.7 |
| 20260905153642 | 26 | 314 | 11.3 | 17.7 | 0.00 | 0.00 | 0.00 | 41 | 1021.6 |
| 20260905152439 | 26 | 294 | 9.7 | 30.6 | 0.00 | 0.00 | 0.00 | 42 | 1021.4 |
| 20260905151227 | 26 | 285 | 11.3 | 17.7 | 0.00 | 0.00 | 0.00 | 43 | 1021.5 |
| 20260905150035 | 26 | 301 | 9.7 | 17.7 | 0.00 | 0.00 | 0.00 | 42 | 1021.4 |
| 20260905144833 | 26 | 304 | 9.7 | 17.7 | 0.00 | 0.00 | 0.00 | 43 | 1021.4 |
| 20260905143650 | 27 | 305 | 6.4 | 9.7 | 0.00 | 0.00 | 0.00 | 43 | 1021.3 |
| 20260905142438 | 27 | 312 | 6.4 | 9.7 | 0.00 | 0.00 | 0.00 | 42 | 1021.2 |
| 20260905141246 | 27 | 283 | 11.3 | 24.1 | 0.00 | 0.00 | 0.00 | 42 | 1021.2 |
| 20260905140033 | 27 | 308 | 8.0 | 17.7 | 0.00 | 0.00 | 0.00 | 41 | 1021.4 |
| 20260905134841 | 27 | 292 | 9.7 | 14.5 | 0.00 | 0.00 | 0.00 | 40 | 1021.4 |
| 20260905133649 | 27 | 307 | 8.0 | 14.5 | 0.00 | 0.00 | 0.00 | 40 | 1021.5 |
| 20260905132427 | 27 | 315 | 8.0 | 12.9 | 0.00 | 0.00 | 0.00 | 40 | 1021.6 |
| 20260905131235 | 27 | 290 | 9.7 | 14.5 | 0.00 | 0.00 | 0.00 | 39 | 1021.7 |
| 20260905130032 | 27 | 307 | 9.7 | 14.5 | 0.00 | 0.00 | 0.00 | 40 | 1021.9 |
| 20260905124829 | 26 | 310 | 12.9 | 24.1 | 0.00 | 0.00 | 0.00 | 40 | 1021.9 |
| 20260905123626 | 26 | 285 | 11.3 | 19.3 | 0.00 | 0.00 | 0.00 | 42 | 1021.9 |
| 20260905122443 | 26 | 283 | 12.9 | 25.7 | 0.00 | 0.00 | 0.00 | 41 | 1021.9 |
| 20260905121230 | 26 | 293 | 9.7 | 29.0 | 0.00 | 0.00 | 0.00 | 43 | 1021.9 |
| 20260905120027 | 26 | 296 | 12.9 | 27.4 | 0.00 | 0.00 | 0.00 | 43 | 1022.1 |
| 20260905114834 | 26 | 311 | 8.0 | 11.3 | 0.00 | 0.00 | 0.00 | 44 | 1022.0 |
| 20260905113642 | 26 | 306 | 11.3 | 11.3 | 0.00 | 0.00 | 0.00 | 45 | 1022.3 |
| 20260905093335 | 21 | 283 | 6.4 | 11.3 | 0.00 | 0.00 | 0.00 | 61 | 1023.0 |
| 20260905092142 | 21 | 265 | 11.3 | 19.3 | 0.00 | 0.00 | 0.00 | 64 | 1023.2 |
| 20260905090939 | 21 | 271 | 11.3 | 17.7 | 0.00 | 0.00 | 0.00 | 66 | 1023.1 |
| 20260905085716 | -17 | 0.0 | 0.0 | 0.00 | 0.00 | 0.00 | |||
| 20260905084535 | 20 | 281 | 9.7 | 14.5 | 0.00 | 0.00 | 0.00 | 70 | 1023.4 |
| 20260905083331 | 20 | 280 | 4.8 | 6.4 | 0.00 | 0.00 | 0.00 | 73 | 1023.5 |
| 20260905082127 | 19 | 277 | 4.8 | 9.7 | 0.00 | 0.00 | 0.00 | 75 | 1023.6 |
| 20260905080945 | 18 | 316 | 1.6 | 4.8 | 0.00 | 0.00 | 0.00 | 76 | 1023.3 |
| 20260905075743 | 18 | 274 | 4.8 | 8.0 | 0.00 | 0.00 | 0.00 | 75 | 1022.8 |
| 20260905074528 | 18 | 230 | 4.8 | 8.0 | 0.00 | 0.00 | 0.00 | 75 | 1022.2 |
| 20260905073334 | 18 | 266 | 3.2 | 6.4 | 0.00 | 0.00 | 0.00 | 73 | 1021.8 |
| 20260905072135 | 19 | 249 | 4.8 | 8.0 | 0.00 | 0.00 | 0.00 | 73 | 1021.8 |
| 20260905070930 | 19 | 224 | 3.2 | 6.4 | 0.00 | 0.00 | 0.00 | 74 | 1021.6 |
| 20260905065757 | 18 | 244 | 4.8 | 6.4 | 0.00 | 0.00 | 0.00 | 73 | 1022.0 |
| 20260905064531 | 19 | 318 | 3.2 | 3.2 | 0.00 | 0.00 | 0.00 | 70 | 1022.1 |
| 20260905063336 | 19 | 322 | 4.8 | 6.4 | 0.00 | 0.00 | 0.00 | 70 | 1022.3 |
| 20260905062131 | 19 | 303 | 3.2 | 8.0 | 0.00 | 0.00 | 0.00 | 71 | 1022.6 |
| 20260905060946 | 19 | 315 | 1.6 | 3.2 | 0.00 | 0.00 | 0.00 | 72 | 1022.5 |
| 20260905055733 | 18 | 289 | 3.2 | 6.4 | 0.00 | 0.00 | 0.00 | 73 | 1022.2 |
| 20260905054600 | 19 | 245 | 4.8 | 8.0 | 0.00 | 0.00 | 0.00 | 74 | 1022.2 |
| 20260905053325 | 20 | 300 | 3.2 | 4.8 | 0.00 | 0.00 | 0.00 | 72 | 1021.6 |
| 20260905052141 | 20 | 300 | 3.2 | 4.8 | 0.00 | 0.00 | 0.00 | 68 | 1021.4 |
| 20260905051002 | 20 | 319 | 3.2 | 4.8 | 0.00 | 0.00 | 0.00 | 67 | 1021.4 |
| 20260905045738 | 20 | 321 | 3.2 | 4.8 | 0.00 | 0.00 | 0.00 | 66 | 1021.2 |
| 20260905044555 | 20 | 326 | 1.6 | 3.2 | 0.00 | 0.00 | 0.00 | 64 | 1020.7 |
| 20260905043353 | 21 | 321 | 3.2 | 4.8 | 0.00 | 0.00 | 0.00 | 62 | 1020.6 |
| 20260905042129 | 21 | 316 | 4.8 | 6.4 | 0.00 | 0.00 | 0.00 | 59 | 1020.3 |
| 20260905040956 | 21 | 291 | 4.8 | 6.4 | 0.00 | 0.00 | 0.00 | 57 | 1020.4 |
| 20260905035733 | 21 | 313 | 4.8 | 6.4 | 0.00 | 0.00 | 0.00 | 56 | 1019.9 |
| 20260905034531 | 21 | 328 | 6.4 | 9.7 | 0.00 | 0.00 | 0.00 | 57 | 1019.4 |
| 20260905033323 | 21 | 320 | 3.2 | 6.4 | 0.00 | 0.00 | 0.00 | 57 | 1019.1 |
| 20260905032130 | 21 | 318 | 4.8 | 6.4 | 0.00 | 0.00 | 0.00 | 57 | 1018.8 |
| 20260905030957 | 21 | 319 | 4.8 | 6.4 | 0.00 | 0.00 | 0.00 | 57 | 1018.2 |
| 20260905025734 | 21 | 336 | 4.8 | 8.0 | 0.00 | 0.00 | 0.00 | 57 | 1017.9 |
| 20260905024531 | 22 | 334 | 3.2 | 6.4 | 0.00 | 0.00 | 0.00 | 57 | 1017.8 |
| 20260905023419 | 22 | 320 | 4.8 | 8.0 | 0.00 | 0.00 | 0.00 | 57 | 1017.8 |
| 20260905022145 | 22 | 329 | 3.2 | 6.4 | 0.00 | 0.00 | 0.00 | 57 | 1017.6 |
| 20260905020931 | 22 | 322 | 6.4 | 9.7 | 0.00 | 0.00 | 0.00 | 56 | 1017.6 |
| 20260905015757 | 22 | 355 | 8.0 | 16.1 | 0.00 | 0.00 | 0.00 | 56 | 1016.9 |
| 20260905014535 | 23 | 13 | 14.5 | 27.4 | 0.00 | 0.00 | 0.00 | 56 | 1016.9 |
| 20260905013357 | 23 | 318 | 3.2 | 6.4 | 0.00 | 0.00 | 0.00 | 55 | 1016.1 |
| 20260905012132 | 23 | 292 | 3.2 | 6.4 | 0.00 | 0.00 | 0.00 | 55 | 1015.6 |
| 20260905010935 | 23 | 304 | 1.6 | 3.2 | 0.00 | 0.00 | 0.00 | 55 | 1015.5 |
| 20260905005732 | 23 | 292 | 0.0 | 1.6 | 0.00 | 0.00 | 0.00 | 55 | 1015.3 |
| 20260905004545 | 23 | 299 | 0.0 | 1.6 | 0.00 | 0.00 | 0.00 | 55 | 1015.2 |
| 20260905003332 | 23 | 293 | 0.0 | 1.6 | 0.00 | 0.00 | 0.00 | 54 | 1015.2 |
| 20260905002129 | 23 | 301 | 1.6 | 3.2 | 0.00 | 0.00 | 0.00 | 54 | 1015.3 |
| 20260905000936 | 23 | 311 | 0.0 | 1.6 | 0.00 | 0.00 | 0.00 | 53 | 1015.1 |
| 20260904235743 | 23 | 310 | 1.6 | 1.6 | 0.00 | 0.00 | 0.00 | 53 | 1014.9 |
| 20260904234529 | 23 | 290 | 3.2 | 4.8 | 0.00 | 0.00 | 0.00 | 52 | 1014.9 |
| 20260904233347 | 24 | 289 | 1.6 | 3.2 | 0.00 | 0.00 | 0.00 | 52 | 1014.8 |
| 20260904232144 | 23 | 258 | 4.8 | 6.4 | 0.00 | 0.00 | 0.00 | 52 | 1014.8 |
| 20260904230931 | 23 | 273 | 3.2 | 6.4 | 0.00 | 0.00 | 0.00 | 53 | 1014.7 |
| 20260904225752 | 23 | 297 | 3.2 | 3.2 | 0.00 | 0.00 | 0.00 | 53 | 1014.6 |
| 20260904224533 | 23 | 288 | 1.6 | 3.2 | 0.00 | 0.00 | 0.00 | 54 | 1014.5 |
| 20260904223330 | 23 | 284 | 3.2 | 3.2 | 0.00 | 0.00 | 0.00 | 56 | 1014.5 |
| 20260904222137 | 23 | 0.0 | 0.0 | 0.00 | 0.00 | 0.00 | 56 | 1014.5 | |
| 20260904220922 | 23 | 0.0 | 0.0 | 0.00 | 0.00 | 0.00 | 55 | 1014.4 | |
| 20260904215726 | 23 | 0.0 | 0.0 | 0.00 | 0.00 | 0.00 | 55 | 1014.5 | |
| 20260904214553 | 23 | 0 | 0.0 | 0.0 | 0.00 | 0.00 | 0.00 | 55 | 1014.5 |
| 20260904213329 | 23 | 0 | 0.0 | 1.6 | 0.00 | 0.00 | 0.00 | 55 | 1014.4 |
| 20260904212136 | 23 | 0.0 | 0.0 | 0.00 | 0.00 | 0.00 | 55 | 1014.4 | |
| 20260904210943 | 23 | 338 | 0.0 | 0.0 | 0.00 | 0.00 | 0.00 | 54 | 1014.5 |
| 20260904205740 | 23 | 0 | 0.0 | 1.6 | 0.00 | 0.00 | 0.00 | 54 | 1014.5 |
| 20260904204547 | 24 | 0.0 | 0.0 | 0.00 | 0.00 | 0.00 | 54 | 1014.5 | |
| 20260904203352 | 24 | 0.0 | 0.0 | 0.00 | 0.00 | 0.00 | 54 | 1014.7 | |
| 20260904202137 | 25 | 0.0 | 0.0 | 0.00 | 0.00 | 0.00 | 53 | 1014.7 | |
| 20260904200933 | 25 | 0.0 | 0.0 | 0.00 | 0.00 | 0.00 | 53 | 1014.7 | |
| 20260904195730 | 25 | 0.0 | 0.0 | 0.00 | 0.00 | 0.00 | 52 | 1014.7 |